createdAt,value
2018-11-25T00:02:02.539Z,66.60
2018-11-25T00:04:30.938Z,66.80
2018-11-25T00:06:59.307Z,66.90
2018-11-25T00:09:27.674Z,66.80
2018-11-25T00:11:56.039Z,67.00
2018-11-25T00:14:24.431Z,67.00
2018-11-25T00:16:52.786Z,67.00
2018-11-25T00:19:21.124Z,67.00
2018-11-25T00:21:49.568Z,66.90
2018-11-25T00:24:17.835Z,66.90
2018-11-25T00:26:46.121Z,66.90
2018-11-25T00:29:14.425Z,66.80
2018-11-25T00:31:43.110Z,66.70
2018-11-25T00:34:11.504Z,66.70
2018-11-25T00:36:39.902Z,66.40
2018-11-25T00:39:08.981Z,66.30
2018-11-25T00:41:37.395Z,67.00
2018-11-25T00:44:05.825Z,66.30
2018-11-25T00:46:34.139Z,66.20
2018-11-25T00:49:02.428Z,66.30
2018-11-25T00:51:30.756Z,66.30
2018-11-25T00:53:59.041Z,66.40
2018-11-25T00:56:27.321Z,66.50
2018-11-25T00:58:55.617Z,66.90
2018-11-25T01:01:24.564Z,66.70
2018-11-25T01:03:52.937Z,67.10
2018-11-25T01:06:21.348Z,67.20
2018-11-25T01:08:49.639Z,67.00
2018-11-25T01:11:17.937Z,67.40
2018-11-25T01:13:46.307Z,67.50
2018-11-25T01:16:14.615Z,67.50
2018-11-25T01:18:42.963Z,67.30
2018-11-25T01:21:11.274Z,67.30
2018-11-25T01:23:39.642Z,67.20
2018-11-25T01:26:08.065Z,67.10
2018-11-25T01:28:36.405Z,67.00
2018-11-25T01:31:04.702Z,67.40
2018-11-25T01:33:33.038Z,67.00
2018-11-25T01:36:01.369Z,66.80
2018-11-25T01:38:29.727Z,66.90
2018-11-25T01:40:58.024Z,66.80
2018-11-25T01:43:26.339Z,66.70
2018-11-25T01:45:54.617Z,66.70
2018-11-25T01:48:23.114Z,66.60
2018-11-25T01:50:51.404Z,66.60
2018-11-25T01:53:19.809Z,66.50
2018-11-25T01:55:48.193Z,66.50
2018-11-25T01:58:16.615Z,66.30
2018-11-25T02:00:44.943Z,66.20
2018-11-25T02:03:13.271Z,66.20
2018-11-25T02:05:41.718Z,66.20
2018-11-25T02:08:10.147Z,66.20
2018-11-25T02:10:38.509Z,66.30
2018-11-25T02:13:06.980Z,66.50
2018-11-25T02:15:35.421Z,67.70
2018-11-25T02:18:03.860Z,67.80
2018-11-25T02:20:32.277Z,66.70
2018-11-25T02:23:00.652Z,67.80
2018-11-25T02:25:29.016Z,67.70
2018-11-25T02:27:57.338Z,67.80
2018-11-25T02:30:25.717Z,67.80
2018-11-25T02:32:54.069Z,67.80
2018-11-25T02:35:22.414Z,67.90
2018-11-25T02:37:50.714Z,68.00
2018-11-25T02:40:19.031Z,67.90
2018-11-25T02:42:47.329Z,67.70
2018-11-25T02:45:16.540Z,67.70
2018-11-25T02:47:44.857Z,67.50
2018-11-25T02:50:31.597Z,67.40
2018-11-25T02:53:01.126Z,67.40
2018-11-25T02:55:29.560Z,67.00
2018-11-25T02:57:57.890Z,66.10
2018-11-25T03:00:26.250Z,66.10
2018-11-25T03:02:54.568Z,65.70
2018-11-25T03:05:23.101Z,65.60
2018-11-25T03:07:51.428Z,65.50
2018-11-25T03:10:19.802Z,65.40
2018-11-25T03:12:48.297Z,65.50
2018-11-25T03:15:17.531Z,65.40
2018-11-25T03:17:45.975Z,65.20
2018-11-25T03:20:16.321Z,65.20
2018-11-25T03:22:44.725Z,65.10
2018-11-25T03:25:14.380Z,65.10
2018-11-25T03:27:42.763Z,64.90
2018-11-25T03:30:14.221Z,64.80
2018-11-25T03:32:42.862Z,64.90
2018-11-25T03:35:12.542Z,64.80
2018-11-25T03:37:40.986Z,64.70
2018-11-25T03:40:11.494Z,64.50
2018-11-25T03:42:39.932Z,64.50
2018-11-25T03:45:20.942Z,64.60
2018-11-25T03:47:49.281Z,64.30
2018-11-25T03:50:17.665Z,64.30
2018-11-25T03:52:46.037Z,64.30
2018-11-25T03:55:15.257Z,64.60
2018-11-25T03:57:43.621Z,64.80
2018-11-25T04:00:27.350Z,64.90
2018-11-25T04:02:55.654Z,65.10
2018-11-25T04:05:23.998Z,65.20
2018-11-25T04:07:52.328Z,65.20
2018-11-25T04:10:20.645Z,65.20
2018-11-25T04:12:48.953Z,65.20
2018-11-25T04:15:18.165Z,65.20
2018-11-25T04:17:47.105Z,65.80
2018-11-25T04:20:16.477Z,64.90
2018-11-25T04:22:44.905Z,64.70
2018-11-25T04:25:13.674Z,64.60
2018-11-25T04:27:42.005Z,64.30
2018-11-25T04:30:13.461Z,64.30
2018-11-25T04:32:41.933Z,64.30
2018-11-25T04:35:11.201Z,64.40
2018-11-25T04:37:39.726Z,65.00
2018-11-25T04:40:09.432Z,64.90
2018-11-25T04:42:38.114Z,65.00
2018-11-25T04:45:10.333Z,65.30
2018-11-25T04:47:38.997Z,65.30
2018-11-25T04:50:23.642Z,66.40
2018-11-25T04:52:52.006Z,65.60
2018-11-25T04:55:20.357Z,65.60
2018-11-25T04:57:50.287Z,65.80
2018-11-25T05:00:19.055Z,66.00
2018-11-25T05:02:47.621Z,66.20
2018-11-25T05:05:16.439Z,66.20
2018-11-25T05:07:44.852Z,66.50
2018-11-25T05:10:17.298Z,66.40
2018-11-25T05:12:45.666Z,66.80
2018-11-25T05:15:15.220Z,66.50
2018-11-25T05:17:43.762Z,66.30
2018-11-25T05:20:12.837Z,66.30
2018-11-25T05:22:41.425Z,66.20
2018-11-25T05:25:13.857Z,66.30
2018-11-25T05:27:42.293Z,66.20
2018-11-25T05:30:13.757Z,66.20
2018-11-25T05:32:42.323Z,66.10
2018-11-25T05:35:12.798Z,65.90
2018-11-25T05:37:41.340Z,66.00
2018-11-25T05:40:13.593Z,65.80
2018-11-25T05:42:42.150Z,65.90
2018-11-25T05:45:11.705Z,65.80
2018-11-25T05:47:40.326Z,66.00
2018-11-25T05:50:12.280Z,66.10
2018-11-25T05:52:40.702Z,66.50
2018-11-25T05:55:10.640Z,67.40
2018-11-25T05:57:39.063Z,67.80
2018-11-25T06:00:12.680Z,68.00
2018-11-25T06:02:41.015Z,68.00
2018-11-25T06:05:09.473Z,68.20
2018-11-25T06:07:37.872Z,68.20
2018-11-25T06:10:08.486Z,68.10
2018-11-25T06:12:36.882Z,68.00
2018-11-25T06:15:06.881Z,68.00
2018-11-25T06:17:35.281Z,68.10
2018-11-25T06:20:03.661Z,67.80
2018-11-25T06:22:31.976Z,67.90
2018-11-25T06:25:00.320Z,67.90
2018-11-25T06:27:28.598Z,68.00
2018-11-25T06:29:56.928Z,67.90
2018-11-25T06:32:25.275Z,68.10
2018-11-25T06:34:53.616Z,68.20
2018-11-25T06:37:21.990Z,68.30
2018-11-25T06:39:50.369Z,68.40
2018-11-25T06:42:18.829Z,68.40
2018-11-25T06:44:47.330Z,68.60
2018-11-25T06:47:15.623Z,68.30
2018-11-25T06:49:43.989Z,68.30
2018-11-25T06:52:12.368Z,68.20
2018-11-25T06:54:40.686Z,68.20
2018-11-25T06:57:09.028Z,68.30
2018-11-25T06:59:37.465Z,68.50
2018-11-25T07:02:06.335Z,68.50
2018-11-25T07:04:34.740Z,68.60
2018-11-25T07:07:03.068Z,68.80
2018-11-25T07:09:31.465Z,69.00
2018-11-25T07:11:59.802Z,69.20
2018-11-25T07:14:28.177Z,69.30
2018-11-25T07:16:56.510Z,69.10
2018-11-25T07:19:24.833Z,69.20
2018-11-25T07:21:53.164Z,69.00
2018-11-25T07:24:21.501Z,69.00
2018-11-25T07:26:49.954Z,68.70
2018-11-25T07:29:18.257Z,68.70
2018-11-25T07:31:46.605Z,68.60
2018-11-25T07:34:14.906Z,68.60
2018-11-25T07:36:43.241Z,68.50
2018-11-25T07:39:11.569Z,68.40
2018-11-25T07:41:39.941Z,68.60
2018-11-25T07:44:08.325Z,68.30
2018-11-25T07:46:36.695Z,68.20
2018-11-25T07:49:05.180Z,68.20
2018-11-25T07:51:33.595Z,68.10
2018-11-25T07:54:01.933Z,68.00
2018-11-25T07:56:30.309Z,68.00
2018-11-25T07:58:58.601Z,68.00
2018-11-25T08:01:26.911Z,68.00
2018-11-25T08:03:55.249Z,68.10
2018-11-25T08:06:23.621Z,68.60
2018-11-25T08:08:51.946Z,67.80
2018-11-25T08:11:20.252Z,67.70
2018-11-25T08:13:48.652Z,67.80
2018-11-25T08:16:17.029Z,67.70
2018-11-25T08:18:45.428Z,67.80
2018-11-25T08:21:13.768Z,68.30
2018-11-25T08:23:42.128Z,67.50
2018-11-25T08:26:10.522Z,66.60
2018-11-25T08:28:38.936Z,66.60
2018-11-25T08:31:07.335Z,66.90
2018-11-25T08:33:35.798Z,66.60
2018-11-25T08:36:04.173Z,66.20
2018-11-25T08:38:32.573Z,66.20
2018-11-25T08:41:00.993Z,65.50
2018-11-25T08:43:29.318Z,65.70
2018-11-25T08:45:57.721Z,65.60
2018-11-25T08:48:26.073Z,65.60
2018-11-25T08:50:54.451Z,65.60
2018-11-25T08:53:22.816Z,65.70
2018-11-25T08:55:51.278Z,65.80
2018-11-25T08:58:19.892Z,65.80
2018-11-25T09:00:48.365Z,65.80
2018-11-25T09:03:16.722Z,66.00
2018-11-25T09:05:45.175Z,65.90
2018-11-25T09:08:13.687Z,66.40
2018-11-25T09:10:42.101Z,66.00
2018-11-25T09:13:10.429Z,66.00
2018-11-25T09:15:38.904Z,65.80
2018-11-25T09:18:07.368Z,66.00
2018-11-25T09:20:35.833Z,65.80
2018-11-25T09:23:04.155Z,65.70
2018-11-25T09:25:32.908Z,65.30
2018-11-25T09:28:02.266Z,64.80
2018-11-25T09:30:31.687Z,63.70
2018-11-25T09:33:00.073Z,63.20
2018-11-25T09:35:28.441Z,61.10
2018-11-25T09:37:56.962Z,60.10
2018-11-25T09:40:26.270Z,60.70
2018-11-25T09:42:54.623Z,61.40
2018-11-25T09:45:22.973Z,61.20
2018-11-25T09:47:51.512Z,61.30
2018-11-25T09:50:20.777Z,60.60
2018-11-25T09:52:49.100Z,60.00
2018-11-25T09:55:19.372Z,60.50
2018-11-25T09:57:51.808Z,59.60
2018-11-25T10:00:22.355Z,60.10
2018-11-25T10:02:50.727Z,60.90
2018-11-25T10:05:19.075Z,61.20
2018-11-25T10:07:47.406Z,62.00
2018-11-25T10:10:17.942Z,62.30
2018-11-25T10:12:46.404Z,62.10
2018-11-25T10:15:16.785Z,61.40
2018-11-25T10:17:45.226Z,62.20
2018-11-25T10:20:18.661Z,62.10
2018-11-25T10:22:47.040Z,62.00
2018-11-25T10:25:16.117Z,61.60
2018-11-25T10:27:44.538Z,61.80
2018-11-25T10:30:16.844Z,62.00
2018-11-25T10:32:45.867Z,62.10
2018-11-25T10:35:14.223Z,61.20
2018-11-25T10:37:42.700Z,61.50
2018-11-25T10:40:15.143Z,61.20
2018-11-25T10:42:43.526Z,60.60
2018-11-25T10:45:14.832Z,60.60
2018-11-25T10:47:43.357Z,60.10
2018-11-25T10:50:12.965Z,60.00
2018-11-25T10:52:41.438Z,60.40
2018-11-25T10:55:10.981Z,60.60
2018-11-25T10:57:39.798Z,61.10
2018-11-25T11:00:36.446Z,60.90
2018-11-25T11:03:12.318Z,60.80
2018-11-25T11:05:46.065Z,61.20
2018-11-25T11:08:14.440Z,61.40
2018-11-25T11:10:42.835Z,61.70
2018-11-25T11:13:11.274Z,61.90
2018-11-25T11:15:39.711Z,62.00
2018-11-25T11:18:08.578Z,61.80
2018-11-25T11:20:37.193Z,62.90
2018-11-25T11:23:06.061Z,62.20
2018-11-25T11:25:34.529Z,62.20
2018-11-25T11:28:02.860Z,62.10
2018-11-25T11:30:31.201Z,62.20
2018-11-25T11:32:59.538Z,62.40
2018-11-25T11:35:27.910Z,62.30
2018-11-25T11:37:56.255Z,62.60
2018-11-25T11:40:24.665Z,63.00
2018-11-25T11:42:53.033Z,63.20
2018-11-25T11:45:21.433Z,63.10
2018-11-25T11:47:49.811Z,63.20
2018-11-25T11:50:19.621Z,63.20
2018-11-25T11:52:48.038Z,63.20
2018-11-25T11:55:17.207Z,63.00
2018-11-25T11:57:46.437Z,63.10
2018-11-25T12:00:22.973Z,63.20
2018-11-25T12:02:51.484Z,63.80
2018-11-25T12:05:19.843Z,62.80
2018-11-25T12:07:48.218Z,62.90
2018-11-25T12:10:17.301Z,62.80
2018-11-25T12:12:45.657Z,62.70
2018-11-25T12:15:19.557Z,62.40
2018-11-25T12:17:47.872Z,62.30
2018-11-25T12:20:16.505Z,62.20
2018-11-25T12:22:45.090Z,62.10
2018-11-25T12:25:14.887Z,61.70
2018-11-25T12:27:43.354Z,62.00
2018-11-25T12:30:14.092Z,62.20
2018-11-25T12:32:43.727Z,62.40
2018-11-25T12:35:13.322Z,61.50
2018-11-25T12:37:41.889Z,61.60
2018-11-25T12:40:14.782Z,62.30
2018-11-25T12:42:44.399Z,62.50
2018-11-25T12:45:14.209Z,62.20
2018-11-25T12:47:42.659Z,62.60
2018-11-25T12:50:13.257Z,62.80
2018-11-25T12:52:41.757Z,62.70
2018-11-25T12:55:12.539Z,62.80
2018-11-25T12:57:40.986Z,62.60
2018-11-25T13:00:45.431Z,62.60
2018-11-25T13:03:14.484Z,62.70
2018-11-25T13:05:46.426Z,62.40
2018-11-25T13:08:12.321Z,62.00
2018-11-25T13:10:40.749Z,62.10
2018-11-25T13:13:10.514Z,61.90
2018-11-25T13:15:38.891Z,61.90
2018-11-25T13:18:08.427Z,62.40
2018-11-25T13:20:37.831Z,60.60
2018-11-25T13:23:06.745Z,60.70
2018-11-25T13:25:35.163Z,61.20
2018-11-25T13:28:03.577Z,61.40
2018-11-25T13:30:32.541Z,61.90
2018-11-25T13:33:01.898Z,62.30
2018-11-25T13:35:32.536Z,62.90
2018-11-25T13:38:00.951Z,63.00
2018-11-25T13:40:29.245Z,63.40
2018-11-25T13:42:57.599Z,63.80
2018-11-25T13:45:25.925Z,64.10
2018-11-25T13:47:54.256Z,64.60
2018-11-25T13:50:22.605Z,65.20
2018-11-25T13:52:50.976Z,65.60
2018-11-25T13:55:21.008Z,66.10
2018-11-25T13:57:49.374Z,66.40
2018-11-25T14:00:40.502Z,66.60
2018-11-25T14:03:11.070Z,67.20
2018-11-25T14:05:40.139Z,67.50
2018-11-25T14:08:08.845Z,67.40
2018-11-25T14:10:38.081Z,67.50
2018-11-25T14:13:06.762Z,68.10
2018-11-25T14:15:35.937Z,67.40
2018-11-25T14:18:04.287Z,67.30
2018-11-25T14:20:32.636Z,67.10
2018-11-25T14:23:01.011Z,66.60
2018-11-25T14:25:29.356Z,66.30
2018-11-25T14:28:00.899Z,66.00
2018-11-25T14:30:30.276Z,65.80
2018-11-25T14:32:58.559Z,65.90
2018-11-25T14:35:26.899Z,65.80
2018-11-25T14:37:55.190Z,65.70
2018-11-25T14:40:23.838Z,65.80
2018-11-25T14:42:52.155Z,65.90
2018-11-25T14:45:20.482Z,66.10
2018-11-25T14:47:48.815Z,66.20
2018-11-25T14:50:18.441Z,66.10
2018-11-25T14:52:49.054Z,65.90
2018-11-25T14:55:18.094Z,65.80
2018-11-25T14:57:47.406Z,65.80
2018-11-25T15:00:17.977Z,65.70
2018-11-25T15:02:57.667Z,65.30
2018-11-25T15:05:41.147Z,65.20
2018-11-25T15:08:11.230Z,65.00
2018-11-25T15:10:39.609Z,64.90
2018-11-25T15:13:08.501Z,64.80
2018-11-25T15:15:36.878Z,65.80
2018-11-25T15:18:05.760Z,65.30
2018-11-25T15:20:34.157Z,65.40
2018-11-25T15:23:04.450Z,65.80
2018-11-25T15:25:34.682Z,65.80
2018-11-25T15:28:03.001Z,65.80
2018-11-25T15:30:31.449Z,65.80
2018-11-25T15:32:59.775Z,65.80
2018-11-25T15:35:28.188Z,65.80
2018-11-25T15:37:56.555Z,65.80
2018-11-25T15:40:30.591Z,65.80
2018-11-25T15:42:58.912Z,65.80
2018-11-25T15:45:27.596Z,65.70
2018-11-25T15:47:58.772Z,65.70
2018-11-25T15:50:28.112Z,65.90
2018-11-25T15:52:56.593Z,66.10
2018-11-25T15:55:25.105Z,66.10
2018-11-25T15:57:53.516Z,65.90
2018-11-25T16:00:23.314Z,65.60
2018-11-25T16:02:51.943Z,65.40
2018-11-25T16:05:24.948Z,65.10
2018-11-25T16:07:53.340Z,64.80
2018-11-25T16:10:21.761Z,64.50
2018-11-25T16:12:50.933Z,64.20
2018-11-25T16:15:23.713Z,63.80
2018-11-25T16:17:52.027Z,63.50
2018-11-25T16:20:21.675Z,63.10
2018-11-25T16:22:51.662Z,63.20
2018-11-25T16:25:26.698Z,60.70
2018-11-25T16:27:57.157Z,60.00
2018-11-25T16:33:00.321Z,60.00
2018-11-25T16:35:28.649Z,60.00
2018-11-25T16:37:56.952Z,61.00
2018-11-25T16:40:25.311Z,61.40
2018-11-25T16:42:53.972Z,62.50
2018-11-25T16:45:22.310Z,62.40
2018-11-25T16:47:50.624Z,63.00
2018-11-25T16:50:24.995Z,63.20
2018-11-25T16:52:47.423Z,63.60
2018-11-25T16:55:16.199Z,63.90
2018-11-25T16:57:45.039Z,64.10
2018-11-25T17:00:17.292Z,64.10
2018-11-25T17:02:46.238Z,64.40
2018-11-25T17:05:26.758Z,64.80
2018-11-25T17:08:04.378Z,65.20
2018-11-25T17:10:32.758Z,65.20
2018-11-25T17:13:01.093Z,65.50
2018-11-25T17:15:29.629Z,65.90
2018-11-25T17:17:57.938Z,67.40
2018-11-25T17:20:27.194Z,67.90
2018-11-25T17:22:55.602Z,68.20
2018-11-25T17:25:23.940Z,68.40
2018-11-25T17:27:52.247Z,69.30
2018-11-25T17:30:21.105Z,68.80
2018-11-25T17:32:49.668Z,68.90
2018-11-25T17:35:23.321Z,69.10
2018-11-25T17:37:51.981Z,69.20
2018-11-25T17:40:20.387Z,69.60
2018-11-25T17:42:48.842Z,69.40
2018-11-25T17:45:17.158Z,69.80
2018-11-25T17:47:45.547Z,69.80
2018-11-25T17:50:18.059Z,69.80
2018-11-25T17:52:47.372Z,70.10
2018-11-25T17:55:16.160Z,70.00
2018-11-25T17:57:44.509Z,69.40
2018-11-25T18:00:16.810Z,70.10
2018-11-25T18:02:45.230Z,70.20
2018-11-25T18:05:13.561Z,69.70
2018-11-25T18:07:42.099Z,69.60
2018-11-25T18:10:12.122Z,69.60
2018-11-25T18:12:41.449Z,70.00
2018-11-25T18:15:17.487Z,69.80
2018-11-25T18:17:52.041Z,69.90
2018-11-25T18:20:20.381Z,69.90
2018-11-25T18:22:49.321Z,69.80
2018-11-25T18:25:17.717Z,69.70
2018-11-25T18:27:46.096Z,69.50
2018-11-25T18:30:16.031Z,69.40
2018-11-25T18:32:44.965Z,69.80
2018-11-25T18:35:13.374Z,69.30
2018-11-25T18:37:41.746Z,69.60
2018-11-25T18:40:11.775Z,69.40
2018-11-25T18:42:40.556Z,69.40
2018-11-25T18:45:11.677Z,69.40
2018-11-25T18:47:40.149Z,69.70
2018-11-25T18:50:10.883Z,69.20
2018-11-25T18:52:39.386Z,69.10
2018-11-25T18:55:07.081Z,69.20
2018-11-25T18:57:35.573Z,69.30
2018-11-25T19:00:05.710Z,69.50
2018-11-25T19:02:40.817Z,69.20
2018-11-25T19:05:09.396Z,69.30
2018-11-25T19:07:37.799Z,69.00
2018-11-25T19:10:11.276Z,68.80
2018-11-25T19:12:44.372Z,68.50
2018-11-25T19:15:09.770Z,68.60
2018-11-25T19:17:38.431Z,68.70
2018-11-25T19:20:11.826Z,68.50
2018-11-25T19:22:40.279Z,68.40
2018-11-25T19:25:10.354Z,68.20
2018-11-25T19:27:38.727Z,68.00
2018-11-25T19:30:10.357Z,68.20
2018-11-25T19:32:38.862Z,67.90
2018-11-25T19:35:11.656Z,67.80
2018-11-25T19:37:40.574Z,67.70
2018-11-25T19:40:10.943Z,67.50
2018-11-25T19:42:39.353Z,67.80
2018-11-25T19:45:15.022Z,67.40
2018-11-25T19:47:43.456Z,67.30
2018-11-25T19:50:14.670Z,67.50
2018-11-25T19:52:43.033Z,66.90
2018-11-25T19:55:11.491Z,67.00
2018-11-25T19:57:39.983Z,67.00
2018-11-25T20:00:16.684Z,66.90
2018-11-25T20:02:45.173Z,66.80
2018-11-25T20:05:14.077Z,66.50
2018-11-25T20:07:44.074Z,66.40
2018-11-25T20:10:13.545Z,66.40
2018-11-25T20:12:43.537Z,66.40
2018-11-25T20:15:13.077Z,66.20
2018-11-25T20:17:41.481Z,66.00
2018-11-25T20:20:13.007Z,65.90
2018-11-25T20:22:41.589Z,65.90
2018-11-25T20:25:11.100Z,66.10
2018-11-25T20:27:40.804Z,65.60
2018-11-25T20:30:14.353Z,65.50
2018-11-25T20:32:47.977Z,65.70
2018-11-25T20:35:16.302Z,65.50
2018-11-25T20:37:49.936Z,65.50
2018-11-25T20:40:18.301Z,65.30
2018-11-25T20:42:46.809Z,65.20
2018-11-25T20:45:21.789Z,65.30
2018-11-25T20:47:50.128Z,65.00
2018-11-25T20:50:18.691Z,65.20
2018-11-25T20:52:52.353Z,65.10
2018-11-25T20:55:20.690Z,65.20
2018-11-25T20:57:48.993Z,65.20
2018-11-25T21:00:19.587Z,65.20
2018-11-25T21:02:47.959Z,65.20
2018-11-25T21:05:16.662Z,65.50
2018-11-25T21:07:45.146Z,65.50
2018-11-25T21:10:14.706Z,65.80
2018-11-25T21:12:44.481Z,65.40
2018-11-25T21:15:13.012Z,65.20
2018-11-25T21:17:41.465Z,65.30
2018-11-25T21:20:12.181Z,65.00
2018-11-25T21:22:40.702Z,65.00
2018-11-25T21:25:15.420Z,64.70
2018-11-25T21:27:43.851Z,64.50
2018-11-25T21:30:15.391Z,64.40
2018-11-25T21:32:44.237Z,64.60
2018-11-25T21:35:13.321Z,64.50
2018-11-25T21:37:41.824Z,64.60
2018-11-25T21:40:13.269Z,64.60
2018-11-25T21:42:41.794Z,64.70
2018-11-25T21:45:11.630Z,64.80
2018-11-25T21:47:40.206Z,64.70
2018-11-25T21:50:12.820Z,64.80
2018-11-25T21:52:41.424Z,64.90
2018-11-25T21:55:11.355Z,64.90
2018-11-25T21:57:40.024Z,64.70
2018-11-25T22:00:11.888Z,64.70
2018-11-25T22:02:40.601Z,65.00
2018-11-25T22:05:10.438Z,64.80
2018-11-25T22:07:39.473Z,64.70
2018-11-25T22:10:09.735Z,65.00
2018-11-25T22:12:39.101Z,65.00
2018-11-25T22:15:11.378Z,65.10
2018-11-25T22:17:39.919Z,65.20
2018-11-25T22:20:09.972Z,65.20
2018-11-25T22:22:38.697Z,65.40
2018-11-25T22:25:08.677Z,65.50
2018-11-25T22:27:37.065Z,65.50
2018-11-25T22:30:11.628Z,65.60
2018-11-25T22:32:40.534Z,65.80
2018-11-25T22:35:11.375Z,65.80
2018-11-25T22:37:42.066Z,65.70
2018-11-25T22:40:11.135Z,65.60
2018-11-25T22:42:40.378Z,66.60
2018-11-25T22:45:12.500Z,66.20
2018-11-25T22:47:41.188Z,66.90
2018-11-25T22:50:18.215Z,66.70
2018-11-25T22:52:46.681Z,66.80
2018-11-25T22:55:18.194Z,67.10
2018-11-25T22:57:46.585Z,67.30
2018-11-25T23:00:17.354Z,67.40
2018-11-25T23:02:46.179Z,67.80
2018-11-25T23:05:26.833Z,67.70
2018-11-25T23:07:55.826Z,67.60
2018-11-25T23:10:24.163Z,67.80
2018-11-25T23:12:52.531Z,67.40
2018-11-25T23:15:20.946Z,67.30
2018-11-25T23:17:49.438Z,67.30
2018-11-25T23:20:17.985Z,67.10
2018-11-25T23:22:46.659Z,67.00
2018-11-25T23:25:15.494Z,67.00
2018-11-25T23:27:44.600Z,66.70
2018-11-25T23:30:14.110Z,66.70
2018-11-25T23:32:42.983Z,66.60
2018-11-25T23:35:14.083Z,66.20
2018-11-25T23:37:43.222Z,66.20
2018-11-25T23:40:12.196Z,66.10
2018-11-25T23:42:41.402Z,65.80
2018-11-25T23:45:12.395Z,65.60
2018-11-25T23:47:41.380Z,65.30
2018-11-25T23:50:11.399Z,65.50
2018-11-25T23:52:40.934Z,65.00
2018-11-25T23:55:12.009Z,64.80
2018-11-25T23:57:41.080Z,64.60
